Time;durP1;ratioP1;P1;durP2;ratioP2;P2;SDS_P1;SDS_P2;PMS_P1;PMS_P2;Temp;Humidity;BMP_temperature;BMP_pressure;BME280_temperature;BME280_humidity;BME280_pressure;Samples;Min_cycle;Max_cycle;Signal;HPM_P1;HPM_P2
2023/09/07 00:01:04;;;;;;;3.50;2.72;;;;;;;;;;5097544;28;20062;-71
2023/09/07 00:03:30;;;;;;;7.32;3.22;;;;;;;;;;5103036;28;20038;-71
2023/09/07 00:05:56;;;;;;;5.53;3.10;;;;;;;;;;5104476;28;20551;-71
2023/09/07 00:08:24;;;;;;;4.95;2.45;;;;;;;;;;5104952;28;20107;-70
2023/09/07 00:10:50;;;;;;;6.85;2.72;;;;;;;;;;5102455;28;20475;-71
2023/09/07 00:13:17;;;;;;;4.93;2.85;;;;;;;;;;5099085;28;20058;-71
2023/09/07 00:15:43;;;;;;;5.47;2.80;;;;;;;;;;5089563;28;20063;-70
2023/09/07 00:18:09;;;;;;;3.40;3.10;;;;;;;;;;5085251;28;20050;-71
2023/09/07 00:20:35;;;;;;;5.93;3.03;;;;;;;;;;5105965;28;20020;-71
2023/09/07 00:23:02;;;;;;;7.60;3.53;;;;;;;;;;5105932;28;20453;-71
2023/09/07 00:25:29;;;;;;;6.93;3.25;;;;;;;;;;5105568;28;20528;-71
2023/09/07 00:27:55;;;;;;;5.60;2.78;;;;;;;;;;5086283;28;20037;-71
2023/09/07 00:30:21;;;;;;;4.72;2.80;;;;;;;;;;5105388;28;20398;-71
2023/09/07 00:32:47;;;;;;;4.32;2.63;;;;;;;;;;5103182;28;20284;-71
2023/09/07 00:35:14;;;;;;;3.92;2.42;;;;;;;;;;5103094;28;20031;-71
2023/09/07 00:37:40;;;;;;;7.30;2.40;;;;;;;;;;5103475;28;20023;-71
2023/09/07 00:40:08;;;;;;;4.38;3.13;;;;;;;;;;5101607;28;20027;-71
2023/09/07 00:42:35;;;;;;;3.92;2.30;;;;;;;;;;5104606;28;20258;-71
2023/09/07 00:45:01;;;;;;;5.90;2.38;;;;;;;;;;5105695;28;20553;-70
2023/09/07 00:47:28;;;;;;;4.70;2.25;;;;;;;;;;5100218;28;20571;-70
2023/09/07 00:49:55;;;;;;;3.92;2.00;;;;;;;;;;5101572;28;20498;-70
2023/09/07 00:52:21;;;;;;;3.97;2.30;;;;;;;;;;5087077;28;20099;-70
2023/09/07 00:54:50;;;;;;;2.97;2.10;;;;;;;;;;5102447;28;20035;-70
2023/09/07 00:57:16;;;;;;;3.88;2.40;;;;;;;;;;5102674;28;20022;-70
2023/09/07 00:59:42;;;;;;;4.90;2.30;;;;;;;;;;5102610;28;20027;-70
2023/09/07 01:02:08;;;;;;;5.03;2.05;;;;;;;;;;5101077;28;20484;-71
2023/09/07 01:04:34;;;;;;;2.72;2.30;;;;;;;;;;5092466;28;20122;-70
2023/09/07 01:07:06;;;;;;;3.05;2.22;;;;;;;;;;5099889;28;20031;-70
2023/09/07 01:09:32;;;;;;;3.38;2.25;;;;;;;;;;5098514;28;20027;-70
2023/09/07 01:11:59;;;;;;;3.78;2.03;;;;;;;;;;5100903;28;20579;-70
2023/09/07 01:14:25;;;;;;;2.53;2.03;;;;;;;;;;5103270;28;20511;-70
2023/09/07 01:16:51;;;;;;;6.97;2.05;;;;;;;;;;5101318;28;20047;-71
2023/09/07 01:19:17;;;;;;;4.03;2.33;;;;;;;;;;5104828;28;20526;-70
2023/09/07 01:21:43;;;;;;;3.30;1.90;;;;;;;;;;5099749;28;20034;-70
2023/09/07 01:24:11;;;;;;;3.42;2.22;;;;;;;;;;5100857;28;20231;-70
2023/09/07 01:26:40;;;;;;;3.80;2.38;;;;;;;;;;5101293;28;20039;-70
2023/09/07 01:29:06;;;;;;;4.57;2.38;;;;;;;;;;5101416;28;20103;-71
2023/09/07 01:31:37;;;;;;;2.38;2.10;;;;;;;;;;5099948;28;20432;-70
2023/09/07 01:34:04;;;;;;;5.35;2.20;;;;;;;;;;5098930;28;20123;-70
2023/09/07 01:36:30;;;;;;;4.43;2.40;;;;;;;;;;5100618;28;20030;-70
2023/09/07 01:38:56;;;;;;;4.57;2.88;;;;;;;;;;5102077;28;20028;-70
2023/09/07 01:41:22;;;;;;;6.75;3.00;;;;;;;;;;5090398;28;20021;-70
2023/09/07 01:43:49;;;;;;;6.30;3.10;;;;;;;;;;5103250;28;20031;-70
2023/09/07 01:46:15;;;;;;;4.38;2.78;;;;;;;;;;5102264;28;20035;-70
2023/09/07 01:48:42;;;;;;;7.50;2.97;;;;;;;;;;5097684;28;20169;-70
2023/09/07 01:51:08;;;;;;;5.38;2.47;;;;;;;;;;5091651;28;20455;-71
2023/09/07 01:53:37;;;;;;;3.55;2.47;;;;;;;;;;5103410;28;20036;-71
2023/09/07 01:56:03;;;;;;;3.83;2.30;;;;;;;;;;5100021;28;20491;-70
2023/09/07 01:58:29;;;;;;;6.05;2.63;;;;;;;;;;5103349;28;20055;-70
2023/09/07 02:00:59;;;;;;;3.28;2.92;;;;;;;;;;5098510;28;20063;-70
2023/09/07 02:03:25;;;;;;;4.72;2.83;;;;;;;;;;5101383;28;20031;-70
2023/09/07 02:05:53;;;;;;;4.93;2.70;;;;;;;;;;5102184;28;20096;-70
2023/09/07 02:08:20;;;;;;;3.97;2.70;;;;;;;;;;5090635;28;20030;-70
2023/09/07 02:10:46;;;;;;;6.53;2.70;;;;;;;;;;5093074;28;20035;-70
2023/09/07 02:13:12;;;;;;;8.18;2.92;;;;;;;;;;5099345;28;20051;-70
2023/09/07 02:15:39;;;;;;;5.25;2.70;;;;;;;;;;5094253;28;20048;-70
2023/09/07 02:18:05;;;;;;;4.50;2.90;;;;;;;;;;5099846;28;20027;-70
2023/09/07 02:20:34;;;;;;;3.63;2.75;;;;;;;;;;5103550;28;20059;-70
2023/09/07 02:23:01;;;;;;;4.93;2.42;;;;;;;;;;5097392;28;20131;-70
2023/09/07 02:25:30;;;;;;;3.53;2.25;;;;;;;;;;5102131;28;20032;-70
2023/09/07 02:27:56;;;;;;;4.22;2.35;;;;;;;;;;5101560;28;20069;-70
2023/09/07 02:30:23;;;;;;;2.67;2.20;;;;;;;;;;5098984;28;20271;-70
2023/09/07 02:32:51;;;;;;;6.68;2.28;;;;;;;;;;5085995;28;20032;-71
2023/09/07 02:35:18;;;;;;;6.40;1.90;;;;;;;;;;5100405;28;20085;-71
2023/09/07 02:37:44;;;;;;;3.15;1.92;;;;;;;;;;5101116;28;20031;-71
2023/09/07 02:40:10;;;;;;;4.72;2.30;;;;;;;;;;5098392;28;20464;-70
2023/09/07 02:42:36;;;;;;;3.05;2.33;;;;;;;;;;5099357;28;20019;-71
2023/09/07 02:45:03;;;;;;;3.05;2.20;;;;;;;;;;5102970;28;20088;-70
2023/09/07 02:47:29;;;;;;;2.60;2.13;;;;;;;;;;5104489;28;20027;-70
2023/09/07 02:49:55;;;;;;;4.25;2.63;;;;;;;;;;5078508;28;20035;-70
2023/09/07 02:52:22;;;;;;;3.22;2.20;;;;;;;;;;5106328;28;20094;-70
2023/09/07 02:54:50;;;;;;;5.20;2.70;;;;;;;;;;5101841;28;20051;-70
2023/09/07 02:57:16;;;;;;;3.08;2.33;;;;;;;;;;5105373;28;20107;-70
2023/09/07 02:59:43;;;;;;;3.95;2.85;;;;;;;;;;5105077;28;20072;-71
2023/09/07 03:02:09;;;;;;;5.25;3.03;;;;;;;;;;5099629;28;20106;-70
2023/09/07 03:04:35;;;;;;;4.03;3.08;;;;;;;;;;5085665;28;20521;-70
2023/09/07 03:07:02;;;;;;;4.53;3.15;;;;;;;;;;5104799;28;20046;-70
2023/09/07 03:09:28;;;;;;;3.85;2.75;;;;;;;;;;5101395;28;20723;-70
2023/09/07 03:11:54;;;;;;;7.88;2.70;;;;;;;;;;5079911;28;20023;-70
2023/09/07 03:14:20;;;;;;;6.15;3.00;;;;;;;;;;5104883;28;20390;-70
2023/09/07 03:16:50;;;;;;;4.35;3.38;;;;;;;;;;5087669;28;20530;-71
2023/09/07 03:19:16;;;;;;;6.03;3.00;;;;;;;;;;5094306;28;20238;-70
2023/09/07 03:21:43;;;;;;;5.45;3.20;;;;;;;;;;5101857;28;20462;-71
2023/09/07 03:24:09;;;;;;;4.68;3.80;;;;;;;;;;5102716;28;20024;-70
2023/09/07 03:26:35;;;;;;;6.18;3.20;;;;;;;;;;5101798;28;20020;-70
2023/09/07 03:29:01;;;;;;;5.63;3.35;;;;;;;;;;5101989;28;20028;-70
2023/09/07 03:31:27;;;;;;;4.18;3.40;;;;;;;;;;5099846;28;20745;-70
2023/09/07 03:33:53;;;;;;;6.10;3.55;;;;;;;;;;5103494;28;20100;-70
2023/09/07 03:36:21;;;;;;;7.18;3.67;;;;;;;;;;5103107;28;20511;-70
2023/09/07 03:38:47;;;;;;;8.93;3.60;;;;;;;;;;5084011;28;20031;-71
2023/09/07 03:41:14;;;;;;;7.88;3.78;;;;;;;;;;5103095;28;20359;-71
2023/09/07 03:43:40;;;;;;;3.50;2.92;;;;;;;;;;5101134;28;20035;-71
2023/09/07 03:46:06;;;;;;;7.47;3.40;;;;;;;;;;5106248;28;20547;-71
2023/09/07 03:48:32;;;;;;;5.10;3.53;;;;;;;;;;5084746;28;20447;-71
2023/09/07 03:50:58;;;;;;;7.80;3.65;;;;;;;;;;5097897;28;20407;-71
2023/09/07 03:53:25;;;;;;;5.85;4.07;;;;;;;;;;5101880;28;20571;-70
2023/09/07 03:55:51;;;;;;;5.60;3.40;;;;;;;;;;5103120;27;20023;-72
2023/09/07 03:58:17;;;;;;;5.68;3.47;;;;;;;;;;5104479;28;20031;-73
2023/09/07 04:00:44;;;;;;;8.20;3.72;;;;;;;;;;5098109;28;20027;-71
2023/09/07 04:03:10;;;;;;;5.45;3.35;;;;;;;;;;5106512;28;20019;-71
2023/09/07 04:05:40;;;;;;;5.68;3.35;;;;;;;;;;5107152;28;20062;-72
2023/09/07 04:08:07;;;;;;;9.07;3.92;;;;;;;;;;5105564;28;20038;-71
2023/09/07 04:10:33;;;;;;;6.85;3.80;;;;;;;;;;5106085;28;20449;-71
2023/09/07 04:13:02;;;;;;;7.13;3.90;;;;;;;;;;5098274;28;20032;-71
2023/09/07 04:15:31;;;;;;;6.93;3.85;;;;;;;;;;5091439;28;20035;-71
2023/09/07 04:17:57;;;;;;;4.82;3.85;;;;;;;;;;5103424;28;20015;-71
2023/09/07 04:20:24;;;;;;;9.95;3.90;;;;;;;;;;5099671;28;20020;-71
2023/09/07 04:22:50;;;;;;;5.47;3.60;;;;;;;;;;5090054;28;20046;-71
2023/09/07 04:25:16;;;;;;;7.93;4.15;;;;;;;;;;5104271;28;20593;-71
2023/09/07 04:27:42;;;;;;;8.50;3.95;;;;;;;;;;5108885;28;20022;-71
2023/09/07 04:30:09;;;;;;;7.75;3.90;;;;;;;;;;5103563;28;20394;-72
2023/09/07 04:32:37;;;;;;;7.47;4.03;;;;;;;;;;5099860;28;20129;-71
2023/09/07 04:35:04;;;;;;;6.50;3.90;;;;;;;;;;5096691;28;20677;-71
2023/09/07 04:37:30;;;;;;;4.75;4.05;;;;;;;;;;5092666;28;20386;-71
2023/09/07 04:39:56;;;;;;;10.93;4.35;;;;;;;;;;5088933;28;20024;-71
2023/09/07 04:42:22;;;;;;;9.55;5.15;;;;;;;;;;5103422;28;20027;-71
2023/09/07 04:44:49;;;;;;;7.30;4.13;;;;;;;;;;5100330;28;20027;-71
2023/09/07 04:47:15;;;;;;;10.15;4.93;;;;;;;;;;5102516;28;20035;-71
2023/09/07 04:49:41;;;;;;;7.43;4.25;;;;;;;;;;5101194;28;20502;-71
2023/09/07 04:52:09;;;;;;;6.88;4.35;;;;;;;;;;5088104;28;20301;-70
2023/09/07 04:54:37;;;;;;;8.32;5.20;;;;;;;;;;5099143;28;20495;-71
2023/09/07 04:57:06;;;;;;;6.35;4.28;;;;;;;;;;5101241;28;20024;-71
2023/09/07 04:59:32;;;;;;;6.93;4.20;;;;;;;;;;5098417;28;20024;-71
2023/09/07 05:02:01;;;;;;;12.88;4.35;;;;;;;;;;5093806;28;20043;-71
2023/09/07 05:04:27;;;;;;;11.27;4.78;;;;;;;;;;5104579;28;20194;-71
2023/09/07 05:06:54;;;;;;;10.77;5.15;;;;;;;;;;5099400;28;20031;-71
2023/09/07 05:09:20;;;;;;;7.05;4.75;;;;;;;;;;5102722;28;20055;-71
2023/09/07 05:11:46;;;;;;;9.80;4.28;;;;;;;;;;5081310;28;20140;-70
2023/09/07 05:14:12;;;;;;;7.85;4.40;;;;;;;;;;5092608;28;20032;-71
2023/09/07 05:16:38;;;;;;;7.32;4.75;;;;;;;;;;5094325;28;20131;-71
2023/09/07 05:19:05;;;;;;;8.85;4.63;;;;;;;;;;5103015;28;20027;-71
2023/09/07 05:21:31;;;;;;;9.52;4.88;;;;;;;;;;5100029;28;20094;-71
2023/09/07 05:23:57;;;;;;;8.68;5.22;;;;;;;;;;5103186;28;20032;-72
2023/09/07 05:26:24;;;;;;;8.30;4.97;;;;;;;;;;5099621;28;20114;-71
2023/09/07 05:28:50;;;;;;;11.02;5.07;;;;;;;;;;5099734;28;20395;-71
2023/09/07 05:31:16;;;;;;;14.13;5.25;;;;;;;;;;5079749;28;20042;-72
2023/09/07 05:33:42;;;;;;;10.88;5.60;;;;;;;;;;5094609;27;20396;-71
2023/09/07 05:36:08;;;;;;;8.48;4.43;;;;;;;;;;5098782;28;20023;-71
2023/09/07 05:38:35;;;;;;;9.02;4.95;;;;;;;;;;5104150;28;20072;-70
2023/09/07 05:41:01;;;;;;;10.55;5.40;;;;;;;;;;5101014;28;20028;-70
2023/09/07 05:43:27;;;;;;;9.52;5.22;;;;;;;;;;5102431;28;20392;-71
2023/09/07 05:45:53;;;;;;;8.80;5.22;;;;;;;;;;5098425;28;20028;-71
2023/09/07 05:48:19;;;;;;;11.57;5.88;;;;;;;;;;5102627;27;20025;-71
2023/09/07 05:50:46;;;;;;;7.72;4.97;;;;;;;;;;5102563;28;20399;-71
2023/09/07 05:53:12;;;;;;;8.82;5.53;;;;;;;;;;5101459;28;20089;-71
2023/09/07 05:55:38;;;;;;;10.00;5.70;;;;;;;;;;5100430;28;20395;-71
2023/09/07 05:58:05;;;;;;;10.40;5.85;;;;;;;;;;5098775;28;20054;-71
2023/09/07 06:00:32;;;;;;;10.23;5.93;;;;;;;;;;5100313;28;20444;-71
2023/09/07 06:02:58;;;;;;;11.70;6.45;;;;;;;;;;5100865;28;20051;-70
2023/09/07 06:05:24;;;;;;;10.15;6.38;;;;;;;;;;5101710;28;20032;-69
2023/09/07 06:07:50;;;;;;;10.75;6.75;;;;;;;;;;5101193;28;20027;-70
2023/09/07 06:10:19;;;;;;;8.93;5.95;;;;;;;;;;5099259;28;20106;-70
2023/09/07 06:12:45;;;;;;;8.88;6.05;;;;;;;;;;5099535;28;20024;-70
2023/09/07 06:15:11;;;;;;;14.57;6.40;;;;;;;;;;5095064;28;20119;-70
2023/09/07 06:17:37;;;;;;;11.98;6.50;;;;;;;;;;5100642;28;20035;-70
2023/09/07 06:20:05;;;;;;;14.25;5.82;;;;;;;;;;5097442;28;20023;-70
2023/09/07 06:22:34;;;;;;;8.93;6.40;;;;;;;;;;5107000;28;20509;-70
2023/09/07 06:25:00;;;;;;;12.82;6.47;;;;;;;;;;5083078;28;20390;-70
2023/09/07 06:27:26;;;;;;;7.97;5.55;;;;;;;;;;5091951;28;20427;-70
2023/09/07 06:29:52;;;;;;;10.65;6.38;;;;;;;;;;5101164;28;20066;-71
2023/09/07 06:32:18;;;;;;;11.02;6.20;;;;;;;;;;5108212;28;20036;-71
2023/09/07 06:34:45;;;;;;;10.70;6.10;;;;;;;;;;5103889;28;20039;-71
2023/09/07 06:37:11;;;;;;;14.73;6.60;;;;;;;;;;5106057;28;20076;-71
2023/09/07 06:39:38;;;;;;;9.60;5.82;;;;;;;;;;5105325;28;20197;-71
2023/09/07 06:42:04;;;;;;;13.65;6.70;;;;;;;;;;5102598;28;20036;-71
2023/09/07 06:44:30;;;;;;;13.43;7.10;;;;;;;;;;5104403;28;20030;-70
2023/09/07 06:46:56;;;;;;;12.80;6.35;;;;;;;;;;5102527;28;20720;-71
2023/09/07 06:49:23;;;;;;;11.32;6.90;;;;;;;;;;5107401;28;20256;-71
2023/09/07 06:51:49;;;;;;;13.23;6.50;;;;;;;;;;5084063;28;20509;-71
2023/09/07 06:54:15;;;;;;;13.15;6.78;;;;;;;;;;5083242;28;20464;-71
2023/09/07 06:56:41;;;;;;;13.77;7.07;;;;;;;;;;5104609;28;20470;-71
2023/09/07 06:59:08;;;;;;;14.32;7.68;;;;;;;;;;5099659;28;20027;-71
2023/09/07 07:01:35;;;;;;;14.88;7.32;;;;;;;;;;5101725;28;20027;-71
2023/09/07 07:04:01;;;;;;;13.07;8.73;;;;;;;;;;5097023;28;20024;-71
2023/09/07 07:06:27;;;;;;;18.67;8.75;;;;;;;;;;5093613;28;20028;-71
2023/09/07 07:08:53;;;;;;;13.68;7.65;;;;;;;;;;5104127;28;20031;-71
2023/09/07 07:11:20;;;;;;;15.95;8.48;;;;;;;;;;5108534;28;20122;-71
2023/09/07 07:13:46;;;;;;;13.57;8.55;;;;;;;;;;5104048;28;20380;-71
2023/09/07 07:16:13;;;;;;;16.33;8.77;;;;;;;;;;5104649;28;20043;-71
2023/09/07 07:18:39;;;;;;;14.70;8.20;;;;;;;;;;5089834;28;20379;-71
2023/09/07 07:21:06;;;;;;;16.27;9.23;;;;;;;;;;5098539;28;20032;-71
2023/09/07 07:23:32;;;;;;;16.50;9.07;;;;;;;;;;5103907;28;20019;-71
2023/09/07 07:25:58;;;;;;;13.48;8.80;;;;;;;;;;5105381;28;20583;-71
2023/09/07 07:28:24;;;;;;;13.52;8.63;;;;;;;;;;5106441;28;20111;-71
2023/09/07 07:30:52;;;;;;;17.35;10.93;;;;;;;;;;5087685;28;20522;-71
2023/09/07 07:33:18;;;;;;;16.60;8.73;;;;;;;;;;5102976;28;20028;-71
2023/09/07 07:35:44;;;;;;;17.58;9.43;;;;;;;;;;5088826;28;20038;-71
2023/09/07 07:38:13;;;;;;;11.90;7.82;;;;;;;;;;5097823;28;20153;-71
2023/09/07 07:40:39;;;;;;;17.83;9.32;;;;;;;;;;5104077;28;20387;-71
2023/09/07 07:43:06;;;;;;;17.30;9.68;;;;;;;;;;5092346;28;20097;-76
2023/09/07 07:45:36;;;;;;;13.20;9.27;;;;;;;;;;5106220;28;20034;-75
2023/09/07 07:48:05;;;;;;;17.90;9.68;;;;;;;;;;5101652;28;20462;-75
2023/09/07 07:50:31;;;;;;;17.70;9.82;;;;;;;;;;5084071;28;20032;-76
2023/09/07 07:52:57;;;;;;;16.80;9.57;;;;;;;;;;5093908;28;20036;-69
2023/09/07 07:55:23;;;;;;;17.10;9.10;;;;;;;;;;5078582;28;20020;-72
2023/09/07 07:57:50;;;;;;;14.82;10.35;;;;;;;;;;5098498;28;20221;-68
2023/09/07 08:00:16;;;;;;;16.45;9.98;;;;;;;;;;5082719;28;20063;-69
2023/09/07 08:02:43;;;;;;;18.35;9.15;;;;;;;;;;5090238;28;20214;-71
2023/09/07 08:05:10;;;;;;;22.15;8.95;;;;;;;;;;5097709;28;20038;-71
2023/09/07 08:07:36;;;;;;;14.90;9.13;;;;;;;;;;5076215;28;20683;-71
2023/09/07 08:10:03;;;;;;;13.35;8.35;;;;;;;;;;5090519;28;20640;-71
2023/09/07 08:12:29;;;;;;;15.73;8.00;;;;;;;;;;5078682;27;21378;-74
2023/09/07 08:14:55;;;;;;;16.88;7.97;;;;;;;;;;5091409;28;20567;-73
2023/09/07 08:17:21;;;;;;;15.25;8.43;;;;;;;;;;5093403;28;20639;-73
2023/09/07 08:19:48;;;;;;;14.18;8.10;;;;;;;;;;5093748;28;20023;-70
2023/09/07 08:22:16;;;;;;;11.25;8.15;;;;;;;;;;5091913;28;20094;-70
2023/09/07 08:24:44;;;;;;;16.13;8.93;;;;;;;;;;5080163;28;20595;-70
2023/09/07 08:27:11;;;;;;;16.98;10.00;;;;;;;;;;5098668;28;20039;-70
2023/09/07 08:29:38;;;;;;;10.50;8.27;;;;;;;;;;5095883;28;20032;-70
2023/09/07 08:32:04;;;;;;;13.50;8.27;;;;;;;;;;5095924;28;20027;-70
2023/09/07 08:34:31;;;;;;;15.95;8.15;;;;;;;;;;5099102;28;20062;-71
2023/09/07 08:37:01;;;;;;;12.45;7.68;;;;;;;;;;5096605;28;20026;-72
2023/09/07 08:39:27;;;;;;;18.48;8.20;;;;;;;;;;5077292;28;20073;-70
2023/09/07 08:41:53;;;;;;;15.68;8.77;;;;;;;;;;5094741;28;20612;-70
2023/09/07 08:44:20;;;;;;;16.25;8.02;;;;;;;;;;5095920;28;20107;-71
2023/09/07 08:46:46;;;;;;;15.07;7.78;;;;;;;;;;5095616;28;20518;-71
2023/09/07 08:49:12;;;;;;;17.00;7.60;;;;;;;;;;5093147;28;20027;-71
2023/09/07 08:51:39;;;;;;;13.63;7.95;;;;;;;;;;5096555;28;20095;-70
2023/09/07 08:54:06;;;;;;;15.77;8.40;;;;;;;;;;5096785;28;20040;-70
2023/09/07 08:56:32;;;;;;;13.73;8.05;;;;;;;;;;5093507;28;20058;-70
2023/09/07 08:58:58;;;;;;;16.90;9.48;;;;;;;;;;5093236;28;20107;-70
2023/09/07 09:01:25;;;;;;;19.02;9.50;;;;;;;;;;5096610;28;20111;-71
2023/09/07 09:03:51;;;;;;;18.23;7.35;;;;;;;;;;5091569;28;20032;-71
2023/09/07 09:06:18;;;;;;;12.60;7.72;;;;;;;;;;5096726;28;20024;-70
2023/09/07 09:08:49;;;;;;;18.00;8.57;;;;;;;;;;5077690;28;20506;-71
2023/09/07 09:11:15;;;;;;;15.73;7.70;;;;;;;;;;5093953;28;20032;-71
2023/09/07 09:13:42;;;;;;;13.23;8.77;;;;;;;;;;5096130;28;21289;-71
2023/09/07 09:16:08;;;;;;;14.48;7.20;;;;;;;;;;5087543;28;20131;-70
2023/09/07 09:18:35;;;;;;;13.98;8.13;;;;;;;;;;5091923;28;20118;-70
2023/09/07 09:21:01;;;;;;;12.50;7.75;;;;;;;;;;5098699;28;20065;-70
2023/09/07 09:23:37;;;;;;;11.98;6.95;;;;;;;;;;5096053;28;20339;-71
2023/09/07 09:26:04;;;;;;;17.88;7.15;;;;;;;;;;5096787;28;20507;-71
2023/09/07 09:28:31;;;;;;;15.15;7.35;;;;;;;;;;5095318;28;20024;-70
2023/09/07 09:30:59;;;;;;;16.15;7.20;;;;;;;;;;5098278;28;20036;-71
2023/09/07 09:33:27;;;;;;;14.57;7.43;;;;;;;;;;5078974;28;20486;-70
2023/09/07 09:35:54;;;;;;;16.05;8.52;;;;;;;;;;5097689;28;20561;-70
2023/09/07 09:38:21;;;;;;;20.70;8.57;;;;;;;;;;5101333;28;20019;-70
2023/09/07 09:40:47;;;;;;;15.75;7.97;;;;;;;;;;5081897;28;20066;-70
2023/09/07 09:43:13;;;;;;;11.55;6.65;;;;;;;;;;5104061;28;20023;-70
2023/09/07 09:45:40;;;;;;;15.35;7.07;;;;;;;;;;5098747;28;20020;-70
2023/09/07 09:48:06;;;;;;;17.30;8.05;;;;;;;;;;5101529;28;20030;-70
2023/09/07 09:50:37;;;;;;;17.27;7.68;;;;;;;;;;5101053;28;20426;-70
2023/09/07 09:53:09;;;;;;;21.73;10.50;;;;;;;;;;5103542;28;20023;-70
2023/09/07 09:55:35;;;;;;;17.08;9.80;;;;;;;;;;5098015;28;20075;-71
2023/09/07 09:58:01;;;;;;;32.75;19.15;;;;;;;;;;5101325;28;20102;-70
2023/09/07 10:00:29;;;;;;;22.27;12.52;;;;;;;;;;5101320;28;20273;-70
2023/09/07 10:03:17;;;;;;;19.60;10.77;;;;;;;;;;5098313;28;21235;-70
2023/09/07 10:05:46;;;;;;;19.70;8.30;;;;;;;;;;5103042;28;20034;-70
2023/09/07 10:08:16;;;;;;;18.33;9.85;;;;;;;;;;5102944;28;20093;-70
2023/09/07 10:10:43;;;;;;;21.60;13.80;;;;;;;;;;5102667;28;20028;-70
2023/09/07 10:13:09;;;;;;;19.08;10.75;;;;;;;;;;5091908;28;20035;-70
2023/09/07 10:15:44;;;;;;;22.45;11.07;;;;;;;;;;5094689;28;20051;-70
2023/09/07 10:18:11;;;;;;;14.43;8.63;;;;;;;;;;5094601;28;20075;-70
2023/09/07 10:20:48;;;;;;;20.33;8.57;;;;;;;;;;5081441;28;20040;-70
2023/09/07 10:23:15;;;;;;;14.45;8.68;;;;;;;;;;5094891;28;20119;-70
2023/09/07 10:25:41;;;;;;;11.13;7.07;;;;;;;;;;5081815;28;20240;-70
2023/09/07 10:28:18;;;;;;;13.75;7.45;;;;;;;;;;5102603;28;20055;-70
2023/09/07 10:30:45;;;;;;;16.77;5.70;;;;;;;;;;5083245;28;20173;-70
2023/09/07 10:33:23;;;;;;;12.32;6.22;;;;;;;;;;5097852;28;20035;-71
2023/09/07 10:35:49;;;;;;;14.05;7.53;;;;;;;;;;5086679;28;20433;-71
2023/09/07 10:38:16;;;;;;;12.35;6.80;;;;;;;;;;5098187;28;20024;-70
2023/09/07 10:40:47;;;;;;;12.45;6.75;;;;;;;;;;5102448;28;20110;-70
2023/09/07 10:43:21;;;;;;;10.13;7.55;;;;;;;;;;5093516;28;20032;-71
2023/09/07 10:45:49;;;;;;;12.57;6.55;;;;;;;;;;5079175;28;20068;-70
2023/09/07 10:48:19;;;;;;;14.10;6.53;;;;;;;;;;5085677;28;20032;-71
2023/09/07 10:50:46;;;;;;;14.35;6.43;;;;;;;;;;5100863;28;20065;-71
2023/09/07 10:53:14;;;;;;;12.48;6.35;;;;;;;;;;5096276;28;20036;-70
2023/09/07 10:55:41;;;;;;;12.65;6.47;;;;;;;;;;5094482;28;20521;-71
2023/09/07 10:58:08;;;;;;;10.55;6.45;;;;;;;;;;5081687;28;20051;-71
2023/09/07 11:00:35;;;;;;;12.23;6.03;;;;;;;;;;5086726;28;20107;-70
2023/09/07 11:03:08;;;;;;;13.40;6.63;;;;;;;;;;5100933;28;20503;-71
2023/09/07 11:05:36;;;;;;;16.75;7.45;;;;;;;;;;5092212;27;20107;-71
2023/09/07 11:08:03;;;;;;;11.98;6.22;;;;;;;;;;5096469;27;20030;-70
2023/09/07 11:10:29;;;;;;;10.30;6.95;;;;;;;;;;5080195;28;20034;-69
2023/09/07 11:12:55;;;;;;;18.10;7.78;;;;;;;;;;5081245;28;20048;-69
2023/09/07 11:15:21;;;;;;;11.98;6.10;;;;;;;;;;5100464;28;20408;-69
2023/09/07 11:17:48;;;;;;;9.68;6.35;;;;;;;;;;5099804;28;20027;-69
2023/09/07 11:20:14;;;;;;;16.90;6.70;;;;;;;;;;5098122;28;20054;-70
2023/09/07 11:22:40;;;;;;;18.33;7.93;;;;;;;;;;5095217;28;20028;-70
2023/09/07 11:25:06;;;;;;;14.63;6.68;;;;;;;;;;5098504;28;20031;-67
2023/09/07 11:27:33;;;;;;;15.63;6.82;;;;;;;;;;5081067;28;20585;-69
2023/09/07 11:30:00;;;;;;;11.93;6.20;;;;;;;;;;5079618;28;20028;-69
2023/09/07 11:32:33;;;;;;;16.05;6.72;;;;;;;;;;5100571;28;20027;-69
2023/09/07 11:34:59;;;;;;;12.07;5.80;;;;;;;;;;5099722;28;20038;-69
2023/09/07 11:37:26;;;;;;;16.58;6.57;;;;;;;;;;5098732;28;20023;-68
2023/09/07 11:39:52;;;;;;;9.25;5.80;;;;;;;;;;5098299;28;20055;-68
2023/09/07 11:42:19;;;;;;;12.40;6.22;;;;;;;;;;5096022;28;20020;-69
2023/09/07 11:44:45;;;;;;;10.60;6.25;;;;;;;;;;5074079;28;20104;-69
2023/09/07 11:47:11;;;;;;;14.85;7.43;;;;;;;;;;5097472;28;20038;-68
2023/09/07 11:49:37;;;;;;;18.02;6.60;;;;;;;;;;5099115;27;20023;-68
2023/09/07 11:52:07;;;;;;;9.35;6.22;;;;;;;;;;5102235;28;20020;-70
2023/09/07 11:54:33;;;;;;;10.85;6.03;;;;;;;;;;5086954;28;20031;-70
2023/09/07 11:56:59;;;;;;;10.88;6.78;;;;;;;;;;5105113;28;20032;-70
2023/09/07 11:59:25;;;;;;;11.45;6.25;;;;;;;;;;5099235;28;20032;-69
2023/09/07 12:01:51;;;;;;;7.70;5.65;;;;;;;;;;5077064;28;20027;-69
2023/09/07 12:04:18;;;;;;;14.82;8.25;;;;;;;;;;5077052;28;20140;-70
2023/09/07 12:06:44;;;;;;;9.77;5.35;;;;;;;;;;5092861;28;20039;-71
2023/09/07 12:09:11;;;;;;;10.27;6.38;;;;;;;;;;5082181;28;20034;-68
2023/09/07 12:11:38;;;;;;;15.50;9.38;;;;;;;;;;5079150;28;20050;-71
2023/09/07 12:14:05;;;;;;;16.08;8.07;;;;;;;;;;5099297;28;20122;-71
2023/09/07 12:16:31;;;;;;;13.50;6.43;;;;;;;;;;5100325;28;20529;-71
2023/09/07 12:18:57;;;;;;;8.88;5.95;;;;;;;;;;5074037;28;20024;-70
2023/09/07 12:21:23;;;;;;;14.38;6.55;;;;;;;;;;5095960;28;20024;-70
2023/09/07 12:23:49;;;;;;;16.25;7.78;;;;;;;;;;5067173;28;20656;-71
2023/09/07 12:26:20;;;;;;;12.80;7.10;;;;;;;;;;5098104;28;20504;-72
2023/09/07 12:28:48;;;;;;;22.45;12.00;;;;;;;;;;5099673;28;20035;-71
2023/09/07 12:31:14;;;;;;;12.10;6.28;;;;;;;;;;5101966;28;20024;-72
2023/09/07 12:33:41;;;;;;;17.50;7.43;;;;;;;;;;5098508;28;20027;-74
2023/09/07 12:36:09;;;;;;;19.55;7.50;;;;;;;;;;5098573;28;20020;-73
2023/09/07 12:38:36;;;;;;;11.70;6.78;;;;;;;;;;5097428;28;20430;-71
2023/09/07 12:41:02;;;;;;;11.20;5.28;;;;;;;;;;5100394;28;20317;-71
2023/09/07 12:43:28;;;;;;;14.73;10.15;;;;;;;;;;5080958;28;20042;-71
2023/09/07 12:45:55;;;;;;;9.00;6.10;;;;;;;;;;5099714;28;20031;-71
2023/09/07 12:48:22;;;;;;;15.35;7.45;;;;;;;;;;5099238;28;20031;-67
2023/09/07 12:50:50;;;;;;;12.45;5.72;;;;;;;;;;5096696;28;20403;-72
2023/09/07 12:53:16;;;;;;;11.70;5.80;;;;;;;;;;5079906;28;20488;-72
2023/09/07 12:55:43;;;;;;;9.25;5.43;;;;;;;;;;5078706;28;20027;-72
2023/09/07 12:58:11;;;;;;;13.65;5.88;;;;;;;;;;5096684;28;20032;-72
2023/09/07 13:00:38;;;;;;;9.88;5.85;;;;;;;;;;5098280;28;20513;-71
2023/09/07 13:03:04;;;;;;;9.40;5.55;;;;;;;;;;5078770;28;20034;-72
2023/09/07 13:05:30;;;;;;;10.65;5.57;;;;;;;;;;5098660;28;20439;-73
2023/09/07 13:07:59;;;;;;;20.77;7.65;;;;;;;;;;5079304;28;20098;-70
2023/09/07 13:10:25;;;;;;;12.40;4.60;;;;;;;;;;5096280;28;20395;-70
2023/09/07 13:12:51;;;;;;;9.18;5.15;;;;;;;;;;5099323;28;20467;-71
2023/09/07 13:15:18;;;;;;;10.27;4.68;;;;;;;;;;5089991;28;20336;-70
2023/09/07 13:17:44;;;;;;;7.35;5.20;;;;;;;;;;5077806;28;20072;-72
2023/09/07 13:20:12;;;;;;;14.50;4.82;;;;;;;;;;5092943;28;20032;-69
2023/09/07 13:22:38;;;;;;;10.30;4.72;;;;;;;;;;5093792;28;20028;-69
2023/09/07 13:25:05;;;;;;;6.75;5.03;;;;;;;;;;5096932;28;20032;-68
2023/09/07 13:27:31;;;;;;;9.57;4.78;;;;;;;;;;5098160;28;20016;-70
2023/09/07 13:29:57;;;;;;;10.77;4.70;;;;;;;;;;5095561;28;20047;-68
2023/09/07 13:32:24;;;;;;;8.23;4.03;;;;;;;;;;5096391;28;20536;-69
2023/09/07 13:34:51;;;;;;;21.85;5.97;;;;;;;;;;5096304;28;20122;-69
2023/09/07 13:37:17;;;;;;;7.32;4.55;;;;;;;;;;5093235;27;20388;-68
2023/09/07 13:39:43;;;;;;;13.93;5.18;;;;;;;;;;5075184;28;20110;-68
2023/09/07 13:42:09;;;;;;;5.68;4.40;;;;;;;;;;5083326;28;20034;-68
2023/09/07 13:44:35;;;;;;;9.10;4.40;;;;;;;;;;5095641;28;20080;-68
2023/09/07 13:47:02;;;;;;;8.23;4.28;;;;;;;;;;5095261;28;20028;-68
2023/09/07 13:49:28;;;;;;;7.82;4.30;;;;;;;;;;5095261;28;20020;-68
2023/09/07 13:51:54;;;;;;;11.18;4.78;;;;;;;;;;5087777;28;20729;-68
2023/09/07 13:54:23;;;;;;;13.80;5.57;;;;;;;;;;5092687;28;20547;-68
2023/09/07 13:56:49;;;;;;;8.10;4.70;;;;;;;;;;5097424;28;20042;-68
2023/09/07 13:59:15;;;;;;;9.52;4.68;;;;;;;;;;5080922;28;20023;-68
2023/09/07 14:01:41;;;;;;;13.18;5.75;;;;;;;;;;5094383;28;20016;-68
2023/09/07 14:04:08;;;;;;;14.73;7.72;;;;;;;;;;5080082;28;20088;-68
2023/09/07 14:06:34;;;;;;;9.43;5.20;;;;;;;;;;5097703;28;20067;-68
2023/09/07 14:09:00;;;;;;;13.75;6.35;;;;;;;;;;5097342;28;20483;-68
2023/09/07 14:11:26;;;;;;;14.30;8.32;;;;;;;;;;5097083;28;20074;-68
2023/09/07 14:13:54;;;;;;;14.95;6.63;;;;;;;;;;5099420;28;20192;-68
2023/09/07 14:16:20;;;;;;;13.38;7.90;;;;;;;;;;5097084;28;20043;-68
2023/09/07 14:18:47;;;;;;;9.15;5.45;;;;;;;;;;5094963;28;20024;-68
2023/09/07 14:21:14;;;;;;;14.32;6.35;;;;;;;;;;5073364;28;20030;-68
2023/09/07 14:23:40;;;;;;;14.80;5.03;;;;;;;;;;5094265;28;20031;-68
2023/09/07 14:26:06;;;;;;;26.08;13.00;;;;;;;;;;5093251;28;20119;-68
2023/09/07 14:28:33;;;;;;;20.63;9.88;;;;;;;;;;5095083;28;20133;-68
2023/09/07 14:31:02;;;;;;;18.52;9.50;;;;;;;;;;5096332;28;20028;-68
2023/09/07 14:33:29;;;;;;;12.82;6.45;;;;;;;;;;5096237;28;20032;-70